Time;durP1;ratioP1;P1;durP2;ratioP2;P2;SDS_P1;SDS_P2;PMS_P1;PMS_P2;Temp;Humidity;BMP_temperature;BMP_pressure;BME280_temperature;BME280_humidity;BME280_pressure;Samples;Min_cycle;Max_cycle;Signal;HPM_P1;HPM_P2
2024/04/24 00:01:33;;;;;;;32.33;23.55;;;307.30;2304.00;;;;;;5447946;26;19995;-71
2024/04/24 00:03:59;;;;;;;31.83;21.55;;;307.50;2304.00;;;;;;5448893;26;20010;-73
2024/04/24 00:06:25;;;;;;;37.05;21.10;;;307.50;2304.00;;;;;;5448653;26;20010;-71
2024/04/24 00:08:51;;;;;;;76.10;45.30;;;307.60;2304.00;;;;;;5449177;26;19999;-71
2024/04/24 00:11:22;;;;;;;34.97;25.70;;;307.60;2304.00;;;;;;5448150;26;20445;-70
2024/04/24 00:13:47;;;;;;;46.08;30.13;;;307.60;2304.00;;;;;;5448527;26;20002;-71
2024/04/24 00:16:13;;;;;;;33.10;23.15;;;307.50;2304.00;;;;;;5448390;26;19999;-70
2024/04/24 00:18:40;;;;;;;63.58;42.92;;;307.40;2304.00;;;;;;5448606;26;20147;-71
2024/04/24 00:21:06;;;;;;;30.75;21.33;;;307.50;2304.00;;;;;;5433504;26;20002;-75
2024/04/24 00:23:32;;;;;;;31.75;20.73;;;307.60;2304.00;;;;;;5448987;26;19999;-71
2024/04/24 00:25:58;;;;;;;25.85;19.58;;;307.60;2304.00;;;;;;5448768;26;20006;-72
2024/04/24 00:28:24;;;;;;;26.00;19.48;;;307.60;2304.00;;;;;;5448658;26;20007;-70
2024/04/24 00:30:57;;;;;;;26.15;19.52;;;307.50;2304.00;;;;;;5448312;26;20009;-71
2024/04/24 00:33:23;;;;;;;28.38;23.73;;;307.50;2304.00;;;;;;5449382;26;20099;-70
2024/04/24 00:35:49;;;;;;;26.58;20.88;;;307.30;2304.00;;;;;;5448238;26;20011;-70
2024/04/24 00:38:15;;;;;;;27.38;21.20;;;307.30;2304.00;;;;;;5449270;26;20003;-70
2024/04/24 00:40:41;;;;;;;31.55;24.40;;;307.40;2304.00;;;;;;5447680;26;19999;-70
2024/04/24 00:43:06;;;;;;;33.30;24.92;;;307.40;2304.00;;;;;;5448304;26;19999;-70
2024/04/24 00:45:32;;;;;;;27.90;20.80;;;307.40;2304.00;;;;;;5447931;26;20378;-78
2024/04/24 00:47:59;;;;;;;28.33;21.25;;;307.40;2304.00;;;;;;5448640;26;20409;-77
2024/04/24 00:50:27;;;;;;;29.83;21.98;;;307.50;2304.00;;;;;;5447430;26;20065;-72
2024/04/24 00:52:53;;;;;;;31.15;22.20;;;307.50;2304.00;;;;;;5427116;26;20364;-77
2024/04/24 00:55:19;;;;;;;32.58;24.13;;;307.50;2304.00;;;;;;5446071;26;20010;-70
2024/04/24 00:57:45;;;;;;;32.38;23.17;;;307.50;2304.00;;;;;;5448509;26;20071;-70
2024/04/24 01:00:11;;;;;;;30.50;19.30;;;307.40;2304.00;;;;;;5399836;26;1223530;-77
2024/04/24 01:02:37;;;;;;;48.53;29.45;;;307.30;2304.00;;;;;;5448498;26;20010;-74
2024/04/24 01:05:05;;;;;;;33.95;23.70;;;307.30;2304.00;;;;;;5447565;26;20464;-73
2024/04/24 01:07:31;;;;;;;51.10;29.35;;;282.50;2278.40;;;;;;5448141;26;20003;-71
2024/04/24 01:09:57;;;;;;;56.65;35.85;;;282.30;2278.40;;;;;;5447183;26;20014;-72
2024/04/24 01:12:22;;;;;;;43.40;27.73;;;282.20;2278.40;;;;;;5448583;26;20003;-77
2024/04/24 01:14:48;;;;;;;40.22;28.17;;;282.10;2278.40;;;;;;5446696;26;20014;-71
2024/04/24 01:17:16;;;;;;;38.88;26.63;;;282.00;2278.40;;;;;;5448397;26;19995;-71
2024/04/24 01:19:47;;;;;;;35.80;26.05;;;282.00;2278.40;;;;;;5447308;26;20380;-71
2024/04/24 01:22:32;;;;;;;35.58;24.17;;;281.90;2278.40;;;;;;5448191;26;20048;-71
2024/04/24 01:25:09;;;;;;;32.90;24.25;;;281.90;2278.40;;;;;;5447222;26;20007;-71
2024/04/24 01:27:35;;;;;;;33.15;23.63;;;281.80;2278.40;;;;;;5447886;26;20117;-73
2024/04/24 01:30:01;;;;;;;32.70;22.75;;;281.80;2278.40;;;;;;5447233;26;20348;-77
2024/04/24 01:32:27;;;;;;;29.23;19.77;;;281.80;2278.40;;;;;;5448085;26;20006;-74
2024/04/24 01:34:53;;;;;;;28.92;20.58;;;281.60;2278.40;;;;;;5447871;26;20462;-70
2024/04/24 01:37:19;;;;;;;23.75;17.23;;;281.60;2278.40;;;;;;5448585;26;20009;-70
2024/04/24 01:39:44;;;;;;;24.85;16.95;;;256.80;2252.80;;;;;;5447260;26;20440;-71
2024/04/24 01:42:10;;;;;;;23.15;16.63;;;282.30;2124.80;;;;;;5447516;26;19999;-70
2024/04/24 01:44:36;;;;;;;26.65;21.27;;;281.60;2278.40;;;;;;5414657;26;20034;-75
2024/04/24 01:47:02;;;;;;;23.70;17.65;;;256.90;2252.80;;;;;;5447392;26;20010;-71
2024/04/24 01:49:28;;;;;;;24.17;18.33;;;256.80;2252.80;;;;;;5428295;26;20027;-71
2024/04/24 01:51:53;;;;;;;26.80;17.83;;;256.80;2252.80;;;;;;5442876;26;20075;-70
2024/04/24 01:54:19;;;;;;;26.67;17.55;;;256.70;2252.80;;;;;;5446611;26;19999;-73
2024/04/24 01:56:45;;;;;;;29.85;18.75;;;256.80;2252.80;;;;;;5447403;26;19995;-70
2024/04/24 01:59:11;;;;;;;29.50;21.40;;;256.70;2048.00;;;;;;5447271;26;20002;-76
2024/04/24 02:01:37;;;;;;;28.00;19.65;;;256.60;2252.80;;;;;;5447453;26;20035;-71
2024/04/24 02:04:03;;;;;;;32.08;20.85;;;256.60;2252.80;;;;;;5446343;26;20082;-71
2024/04/24 02:06:28;;;;;;;27.98;20.67;;;256.50;2252.80;;;;;;5447147;26;20390;-71
2024/04/24 02:08:54;;;;;;;28.90;20.17;;;256.50;2252.80;;;;;;5447419;26;20010;-70
2024/04/24 02:11:20;;;;;;;29.63;19.42;;;256.70;2252.80;;;;;;5447649;26;20460;-72
2024/04/24 02:13:46;;;;;;;27.88;21.02;;;256.70;2252.80;;;;;;5446170;26;20007;-71
2024/04/24 02:16:12;;;;;;;24.33;19.90;;;256.70;2252.80;;;;;;5447379;26;19994;-70
2024/04/24 02:18:37;;;;;;;27.20;21.00;;;256.70;2252.80;;;;;;5446432;26;19998;-70
2024/04/24 02:21:07;;;;;;;37.95;31.23;;;256.80;2252.80;;;;;;5447119;26;20005;-70
2024/04/24 02:23:34;;;;;;;22.85;19.00;;;256.70;2252.80;;;;;;5447266;26;20014;-70
2024/04/24 02:26:07;;;;;;;20.33;15.45;;;256.60;2252.80;;;;;;5445441;26;19999;-70
2024/04/24 02:28:34;;;;;;;39.85;35.60;;;256.60;2252.80;;;;;;5432122;26;20071;-70
2024/04/24 02:31:00;;;;;;;31.73;28.38;;;256.50;2252.80;;;;;;5445898;26;20343;-71
2024/04/24 02:33:26;;;;;;;19.15;15.02;;;256.50;2252.80;;;;;;5447524;26;20010;-71
2024/04/24 02:35:52;;;;;;;24.38;15.68;;;256.40;2022.40;;;;;;5446933;26;20003;-71
2024/04/24 02:38:18;;;;;;;22.00;15.27;;;256.40;1868.80;;;;;;5447043;26;20005;-71
2024/04/24 02:40:44;;;;;;;23.30;17.63;;;256.30;2252.80;;;;;;5446723;26;19999;-71
2024/04/24 02:43:10;;;;;;;23.33;17.42;;;256.20;2252.80;;;;;;5447090;26;20010;-70
2024/04/24 02:45:36;;;;;;;131.68;85.97;;;256.20;2201.60;;;;;;5446016;26;20002;-71
2024/04/24 02:48:02;;;;;;;44.08;29.33;;;256.20;2252.80;;;;;;5447164;26;19999;-70
2024/04/24 02:50:28;;;;;;;46.92;31.02;;;256.20;2252.80;;;;;;5445565;26;20023;-74
2024/04/24 02:52:54;;;;;;;73.93;48.17;;;256.30;2252.80;;;;;;5447143;26;20328;-70
2024/04/24 02:55:20;;;;;;;92.30;53.13;;;256.30;2252.80;;;;;;5445666;26;20003;-70
2024/04/24 02:57:45;;;;;;;63.65;40.03;;;256.30;2252.80;;;;;;5447051;26;19999;-70
2024/04/24 03:00:12;;;;;;;46.60;28.20;;;256.20;2252.80;;;;;;5445956;26;20378;-70
2024/04/24 03:02:37;;;;;;;53.00;40.13;;;256.20;2252.80;;;;;;5446402;26;20730;-71
2024/04/24 03:05:04;;;;;;;47.03;33.70;;;256.20;2252.80;;;;;;5446519;26;19995;-70
2024/04/24 03:07:30;;;;;;;80.72;47.60;;;256.10;2252.80;;;;;;5446597;26;20010;-70
2024/04/24 03:09:56;;;;;;;56.67;37.47;;;256.10;2252.80;;;;;;5445805;26;19998;-70
2024/04/24 03:12:23;;;;;;;44.53;30.38;;;256.10;2252.80;;;;;;5446865;26;20013;-70
2024/04/24 03:14:49;;;;;;;48.85;32.85;;;256.10;2252.80;;;;;;5445529;26;20003;-71
2024/04/24 03:17:14;;;;;;;38.05;27.05;;;256.10;2252.80;;;;;;5450429;26;20030;-71
2024/04/24 03:19:40;;;;;;;36.83;26.77;;;256.00;2252.80;;;;;;5417713;26;20013;-71
2024/04/24 03:22:06;;;;;;;29.98;21.83;;;231.30;2252.80;;;;;;5449853;26;20360;-71
2024/04/24 03:24:32;;;;;;;43.40;29.50;;;231.30;2252.80;;;;;;5449344;26;20097;-73
2024/04/24 03:26:58;;;;;;;75.22;48.10;;;231.30;2252.80;;;;;;5449688;26;20007;-72
2024/04/24 03:29:24;;;;;;;63.15;42.45;;;231.30;2252.80;;;;;;5449377;26;20003;-76
2024/04/24 03:31:50;;;;;;;48.70;32.40;;;231.30;2252.80;;;;;;5449809;26;20047;-71
2024/04/24 03:34:16;;;;;;;33.13;25.40;;;231.20;2252.80;;;;;;5448838;26;20050;-70
2024/04/24 03:36:42;;;;;;;47.03;21.65;;;231.20;2252.80;;;;;;5450113;26;20341;-70
2024/04/24 03:39:08;;;;;;;30.00;19.52;;;231.20;2252.80;;;;;;5448452;26;20626;-71
2024/04/24 03:41:34;;;;;;;47.60;26.02;;;231.20;2252.80;;;;;;5450182;26;19999;-70
2024/04/24 03:44:00;;;;;;;41.90;26.77;;;231.10;2252.80;;;;;;5448332;26;20014;-70
2024/04/24 03:46:25;;;;;;;361.27;49.03;;;231.20;2252.80;;;;;;5449782;26;20039;-71
2024/04/24 03:48:51;;;;;;;71.47;30.35;;;231.20;2252.80;;;;;;5448647;26;20013;-70
2024/04/24 03:51:18;;;;;;;92.72;39.22;;;231.20;2252.80;;;;;;5449331;26;19995;-76
2024/04/24 03:53:43;;;;;;;67.70;43.10;;;231.10;2252.80;;;;;;5447954;26;20161;-70
2024/04/24 03:56:09;;;;;;;58.33;28.67;;;231.20;2252.80;;;;;;5449356;26;20010;-71
2024/04/24 03:58:35;;;;;;;116.20;43.25;;;231.30;2252.80;;;;;;5448284;26;20461;-70
2024/04/24 04:01:01;;;;;;;74.13;31.40;;;256.00;2252.80;;;;;;5449441;26;20015;-71
2024/04/24 04:03:27;;;;;;;118.68;41.25;;;256.00;2252.80;;;;;;5447927;26;19998;-70
2024/04/24 04:05:52;;;;;;;146.18;74.00;;;256.20;2252.80;;;;;;5449242;26;20417;-70
2024/04/24 04:08:21;;;;;;;121.55;68.78;;;256.20;2252.80;;;;;;5447594;26;20002;-70
2024/04/24 04:10:46;;;;;;;85.18;49.17;;;256.20;2252.80;;;;;;5448682;26;20461;-71
2024/04/24 04:13:13;;;;;;;78.13;47.28;;;256.20;2252.80;;;;;;5448307;26;19998;-76
2024/04/24 04:15:39;;;;;;;88.43;51.08;;;256.40;2252.80;;;;;;5417012;26;20604;-70
2024/04/24 04:18:05;;;;;;;62.20;48.03;;;256.50;2252.80;;;;;;5448843;26;20005;-70
2024/04/24 04:20:31;;;;;;;40.80;20.13;;;256.60;2252.80;;;;;;5448981;26;19994;-71
2024/04/24 04:23:00;;;;;;;34.70;21.80;;;256.70;2252.80;;;;;;5448144;26;20014;-76
2024/04/24 04:25:29;;;;;;;112.00;22.60;;;256.60;2252.80;;;;;;5448811;26;20079;-71
2024/04/24 04:27:58;;;;;;;47.80;14.10;;;256.90;2252.80;;;;;;5447958;26;20013;-70
2024/04/24 04:30:24;;;;;;;44.88;13.82;;;281.70;2278.40;;;;;;5448979;26;20003;-74
2024/04/24 04:32:50;;;;;;;46.72;14.07;;;282.10;2278.40;;;;;;5447867;26;20003;-71
2024/04/24 04:35:16;;;;;;;23.33;13.57;;;282.40;2278.40;;;;;;5449094;26;20009;-71
2024/04/24 04:37:42;;;;;;;21.38;11.98;;;307.30;2304.00;;;;;;5447775;26;20383;-70
2024/04/24 04:40:08;;;;;;;47.95;13.35;;;307.80;2304.00;;;;;;5448249;26;19999;-71
2024/04/24 04:42:34;;;;;;;13.18;10.38;;;307.90;2304.00;;;;;;5448354;26;20451;-71
2024/04/24 04:44:59;;;;;;;14.98;9.93;;;333.30;2329.60;;;;;;5448083;26;19998;-78
2024/04/24 04:47:25;;;;;;;16.85;10.70;;;333.30;2329.60;;;;;;5423974;26;20003;-72
2024/04/24 04:49:51;;;;;;;35.47;20.02;;;333.40;2329.60;;;;;;5448560;26;19999;-70
2024/04/24 04:52:17;;;;;;;15.95;10.60;;;333.20;2329.60;;;;;;5447718;26;19999;-71
2024/04/24 04:54:43;;;;;;;11.20;8.95;;;358.50;2329.60;;;;;;5448015;26;20014;-72
2024/04/24 04:57:09;;;;;;;14.98;10.52;;;333.60;2329.60;;;;;;5447246;26;20013;-71
2024/04/24 04:59:35;;;;;;;15.70;13.93;;;384.00;2329.60;;;;;;5447908;26;20027;-77
2024/04/24 05:02:00;;;;;;;10.65;8.25;;;358.90;2329.60;;;;;;5447110;26;20003;-73
2024/04/24 05:04:26;;;;;;;10.43;8.65;;;410.30;2355.20;;;;;;5447557;26;20051;-71
2024/04/24 05:06:52;;;;;;;9.98;8.52;;;436.10;2355.20;;;;;;5425341;26;20002;-70
2024/04/24 05:09:18;;;;;;;10.05;7.50;;;410.30;2355.20;;;;;;5448075;26;20317;-72
2024/04/24 05:11:45;;;;;;;16.45;9.80;;;409.60;2355.20;;;;;;5447275;26;20441;-74
2024/04/24 05:14:15;;;;;;;19.00;14.27;;;384.00;2329.60;;;;;;5447592;26;20002;-70
2024/04/24 05:16:41;;;;;;;11.68;10.25;;;384.10;2329.60;;;;;;5447906;26;20109;-70
2024/04/24 05:19:07;;;;;;;10.45;9.35;;;384.90;2329.60;;;;;;5447306;26;19999;-71
2024/04/24 05:21:32;;;;;;;10.40;8.65;;;384.90;2329.60;;;;;;5447800;26;20077;-71
2024/04/24 05:23:58;;;;;;;12.95;8.77;;;384.30;2329.60;;;;;;5447038;26;20433;-74
2024/04/24 05:29:10;;;;;;;13.55;11.07;;;358.90;2329.60;;;;;;5446475;26;20049;-70
2024/04/24 05:31:37;;;;;;;14.30;10.85;;;358.60;2329.60;;;;;;5447969;26;20003;-70
2024/04/24 05:34:03;;;;;;;15.73;13.52;;;358.60;2329.60;;;;;;5446638;26;20445;-70
2024/04/24 05:36:29;;;;;;;16.15;13.73;;;358.70;2329.60;;;;;;5447728;26;20017;-70
2024/04/24 05:38:55;;;;;;;14.88;11.65;;;358.50;2329.60;;;;;;5445804;26;20013;-77
2024/04/24 05:41:21;;;;;;;17.75;15.90;;;358.40;2329.60;;;;;;5447604;26;19999;-71
2024/04/24 05:43:47;;;;;;;15.48;13.23;;;358.40;2329.60;;;;;;5446106;26;20007;-71
2024/04/24 05:46:13;;;;;;;17.15;14.00;;;333.60;2329.60;;;;;;5447480;26;20011;-70
2024/04/24 05:48:39;;;;;;;16.65;12.77;;;333.40;2329.60;;;;;;5447143;26;20767;-71
2024/04/24 05:51:05;;;;;;;20.13;12.63;;;333.50;2329.60;;;;;;5448008;26;20071;-77
2024/04/24 05:53:31;;;;;;;17.55;12.70;;;333.60;2329.60;;;;;;5446297;26;20034;-70
2024/04/24 05:55:57;;;;;;;16.80;12.43;;;358.60;2329.60;;;;;;5447422;26;19998;-71
2024/04/24 05:58:23;;;;;;;14.57;12.68;;;358.80;2329.60;;;;;;5445949;26;20079;-70
2024/04/24 06:00:49;;;;;;;15.63;12.45;;;358.60;2329.60;;;;;;5447077;26;20443;-74
2024/04/24 06:03:14;;;;;;;15.52;13.43;;;359.10;2329.60;;;;;;5444985;26;20529;-75
2024/04/24 06:05:40;;;;;;;21.90;19.70;;;410.30;2355.20;;;;;;5438784;26;20014;-74
2024/04/24 06:08:06;;;;;;;26.83;22.05;;;435.40;2355.20;;;;;;5446501;26;20006;-75
2024/04/24 06:10:32;;;;;;;19.98;17.88;;;486.40;2380.80;;;;;;5447210;26;20011;-73
2024/04/24 06:12:58;;;;;;;19.23;15.90;;;486.60;2380.80;;;;;;5446111;26;20009;-74
2024/04/24 06:15:24;;;;;;;18.45;16.50;;;486.60;2380.80;;;;;;5446565;26;20013;-75
2024/04/24 06:17:50;;;;;;;15.65;13.40;;;461.40;2380.80;;;;;;5445937;26;20034;-74
2024/04/24 06:20:16;;;;;;;13.95;12.52;;;461.20;2380.80;;;;;;5446644;26;20023;-73
2024/04/24 06:22:43;;;;;;;17.23;12.98;;;460.80;2380.80;;;;;;5445588;26;19995;-74
2024/04/24 06:25:10;;;;;;;13.73;12.32;;;461.00;2380.80;;;;;;5446427;26;20003;-76
2024/04/24 06:27:36;;;;;;;35.00;27.48;;;563.50;2252.80;;;;;;5445136;26;19994;-73
2024/04/24 06:30:02;;;;;;;26.15;23.27;;;640.60;1868.80;;;;;;5446573;26;20075;-74
2024/04/24 06:32:28;;;;;;;32.17;27.88;;;615.00;1868.80;;;;;;5444361;26;19995;-75
2024/04/24 06:34:54;;;;;;;38.55;31.67;;;589.00;1996.80;;;;;;5413836;26;20007;-74
2024/04/24 06:37:20;;;;;;;39.58;35.28;;;538.10;2099.20;;;;;;5445683;26;20031;-74
2024/04/24 06:39:46;;;;;;;45.45;35.22;;;512.70;2176.00;;;;;;5446170;26;20007;-76
2024/04/24 06:42:12;;;;;;;40.88;32.55;;;487.30;2227.20;;;;;;5446717;26;20003;-74
2024/04/24 06:44:38;;;;;;;34.15;29.15;;;512.40;2227.20;;;;;;5447395;26;20001;-78
2024/04/24 06:47:08;;;;;;;32.08;28.60;;;563.40;2124.80;;;;;;5414121;26;20005;-82
2024/04/24 06:49:36;;;;;;;40.33;28.38;;;589.00;1945.60;;;;;;5446117;26;20341;-79
2024/04/24 06:52:03;;;;;;;39.75;33.08;;;640.10;1843.20;;;;;;5445667;26;20021;-79
2024/04/24 06:54:30;;;;;;;39.13;31.65;;;691.60;1715.20;;;;;;5445386;26;20444;-80
2024/04/24 06:56:58;;;;;;;32.17;28.85;;;666.20;1715.20;;;;;;5411261;26;20598;-79
2024/04/24 06:59:24;;;;;;;37.60;32.78;;;614.40;1817.60;;;;;;5443448;26;19991;-78
2024/04/24 07:01:51;;;;;;;41.92;37.10;;;589.50;1868.80;;;;;;5443901;26;20527;-81
2024/04/24 07:04:16;;;;;;;45.95;40.90;;;614.40;1817.60;;;;;;5444204;26;19995;-80
2024/04/24 07:06:42;;;;;;;35.58;31.98;;;717.20;1638.40;;;;;;5412124;26;19999;-76
2024/04/24 07:09:08;;;;;;;35.83;32.03;;;768.60;1510.40;;;;;;5443975;26;20007;-78
2024/04/24 07:11:34;;;;;;;34.95;30.25;;;794.40;1433.60;;;;;;5443890;26;20360;-78
2024/04/24 07:14:00;;;;;;;36.58;32.58;;;742.80;1510.40;;;;;;5443828;26;20505;-77
2024/04/24 07:16:26;;;;;;;37.10;33.10;;;691.40;1561.60;;;;;;5443122;26;20014;-78
2024/04/24 07:18:54;;;;;;;36.35;32.47;;;665.90;1638.40;;;;;;5429603;26;20007;-78
2024/04/24 07:21:21;;;;;;;39.70;32.65;;;717.00;1587.20;;;;;;5443175;26;20010;-78
2024/04/24 07:23:47;;;;;;;34.85;31.25;;;768.00;1536.00;;;;;;5444076;26;20456;-78
2024/04/24 07:26:13;;;;;;;34.65;31.00;;;794.50;1408.00;;;;;;5443674;26;20003;-78
2024/04/24 07:28:39;;;;;;;42.95;38.80;;;794.30;1408.00;;;;;;5410839;26;20003;-78
2024/04/24 07:31:05;;;;;;;35.17;31.33;;;820.10;1356.80;;;;;;5443362;26;20014;-79
2024/04/24 07:33:30;;;;;;;36.85;32.70;;;768.90;1408.00;;;;;;5443349;26;19999;-79
2024/04/24 07:35:57;;;;;;;39.05;35.00;;;768.40;1408.00;;;;;;5443883;26;20237;-79
2024/04/24 07:38:24;;;;;;;40.92;36.90;;;691.50;1561.60;;;;;;5411928;26;20030;-78
2024/04/24 07:40:49;;;;;;;39.50;35.28;;;717.50;1510.40;;;;;;5442717;26;20031;-79
2024/04/24 07:43:15;;;;;;;40.83;36.15;;;768.60;1459.20;;;;;;5443618;26;20017;-78
2024/04/24 07:45:41;;;;;;;40.70;36.70;;;794.10;1408.00;;;;;;5443453;26;20060;-79
2024/04/24 07:48:07;;;;;;;39.38;35.50;;;742.90;1484.80;;;;;;5443519;26;19995;-78
2024/04/24 07:50:34;;;;;;;37.40;33.47;;;794.50;1408.00;;;;;;5442940;26;19998;-78
2024/04/24 07:53:01;;;;;;;34.83;31.27;;;743.10;1484.80;;;;;;5410633;26;20011;-75
2024/04/24 07:55:27;;;;;;;42.45;35.25;;;794.00;1408.00;;;;;;5442738;26;20002;-77
2024/04/24 07:57:53;;;;;;;39.30;35.58;;;794.40;1382.40;;;;;;5442791;26;19990;-77
2024/04/24 08:00:19;;;;;;;39.17;34.25;;;819.60;1382.40;;;;;;5443030;26;20013;-77
2024/04/24 08:02:45;;;;;;;38.33;33.13;;;819.30;1382.40;;;;;;5446361;26;20095;-75
2024/04/24 08:05:10;;;;;;;40.35;36.15;;;742.70;1484.80;;;;;;5446036;26;20448;-77
2024/04/24 08:07:36;;;;;;;37.05;33.33;;;768.90;1433.60;;;;;;5446019;26;20736;-75
2024/04/24 08:10:02;;;;;;;32.45;29.13;;;845.50;1356.80;;;;;;5446422;26;20026;-76
2024/04/24 08:12:28;;;;;;;34.85;31.75;;;845.70;1305.60;;;;;;5446449;26;19991;-75
2024/04/24 08:14:54;;;;;;;35.28;31.90;;;844.90;1356.80;;;;;;5446583;26;20469;-74
2024/04/24 08:17:20;;;;;;;36.40;32.80;;;845.60;1331.20;;;;;;5446301;26;19994;-74
2024/04/24 08:19:46;;;;;;;35.78;32.03;;;870.60;1305.60;;;;;;5447187;26;20262;-76
2024/04/24 08:22:13;;;;;;;40.55;36.47;;;819.60;1356.80;;;;;;5446187;26;19995;-73
2024/04/24 08:24:39;;;;;;;39.22;35.42;;;691.80;1536.00;;;;;;5446611;26;20007;-75
2024/04/24 08:27:05;;;;;;;40.03;34.42;;;691.80;1561.60;;;;;;5446768;26;20097;-75
2024/04/24 08:29:31;;;;;;;37.05;33.22;;;666.50;1587.20;;;;;;5446057;26;20030;-75
2024/04/24 08:31:57;;;;;;;37.55;33.67;;;717.10;1536.00;;;;;;5446036;26;20018;-74
2024/04/24 08:34:23;;;;;;;41.78;35.50;;;666.50;1587.20;;;;;;5447129;26;20072;-73
2024/04/24 08:36:49;;;;;;;42.40;34.42;;;640.60;1638.40;;;;;;5445914;26;20003;-73
2024/04/24 08:39:14;;;;;;;37.80;33.88;;;615.10;1689.60;;;;;;5447085;26;20003;-74
2024/04/24 08:41:44;;;;;;;33.47;30.00;;;589.00;1792.00;;;;;;5444968;26;20027;-75
2024/04/24 08:44:12;;;;;;;36.05;32.20;;;589.30;1766.40;;;;;;5432372;26;20005;-76
2024/04/24 08:46:39;;;;;;;35.28;29.52;;;589.10;1766.40;;;;;;5446003;26;20003;-75
2024/04/24 08:49:06;;;;;;;37.10;32.95;;;589.60;1766.40;;;;;;5447018;26;20023;-77
2024/04/24 08:51:39;;;;;;;33.72;30.02;;;589.40;1817.60;;;;;;5446392;26;20003;-77
2024/04/24 08:54:10;;;;;;;33.90;29.92;;;563.90;1817.60;;;;;;5446868;26;20011;-77
2024/04/24 08:56:47;;;;;;;39.35;32.63;;;589.20;1792.00;;;;;;5446446;26;20008;-73
2024/04/24 08:59:22;;;;;;;35.65;31.45;;;589.00;1817.60;;;;;;5432279;26;20078;-77
2024/04/24 09:02:08;;;;;;;35.13;31.30;;;589.70;1792.00;;;;;;5445015;26;19999;-77
2024/04/24 09:04:35;;;;;;;39.00;32.47;;;614.60;1792.00;;;;;;5446512;26;20006;-77
2024/04/24 09:07:03;;;;;;;39.08;31.33;;;614.70;1792.00;;;;;;5445718;26;19999;-76
2024/04/24 09:09:30;;;;;;;34.67;28.30;;;589.30;1817.60;;;;;;5445634;26;20096;-77
2024/04/24 09:12:00;;;;;;;34.65;29.92;;;589.40;1817.60;;;;;;5445339;26;20017;-76
2024/04/24 09:14:27;;;;;;;32.53;28.77;;;564.00;1868.80;;;;;;5445118;26;20021;-75
2024/04/24 09:16:53;;;;;;;35.22;30.80;;;563.40;1894.40;;;;;;5445972;26;20009;-75
2024/04/24 09:19:19;;;;;;;35.33;30.10;;;563.20;1920.00;;;;;;5445612;26;19999;-76
2024/04/24 09:21:46;;;;;;;35.92;30.20;;;563.60;1920.00;;;;;;5445703;26;20306;-77
2024/04/24 09:24:16;;;;;;;31.50;26.95;;;563.90;1894.40;;;;;;5446218;26;19999;-76
2024/04/24 09:26:43;;;;;;;30.08;26.60;;;563.60;1894.40;;;;;;5444724;26;20009;-74
2024/04/24 09:29:09;;;;;;;29.95;26.02;;;564.00;1894.40;;;;;;5446178;26;19998;-75
2024/04/24 09:31:35;;;;;;;28.65;25.33;;;588.90;1868.80;;;;;;5446659;26;19999;-77
2024/04/24 09:34:01;;;;;;;30.50;26.88;;;564.10;1843.20;;;;;;5447113;26;20502;-75
2024/04/24 09:36:32;;;;;;;41.15;32.88;;;563.50;1868.80;;;;;;5446527;26;20441;-76
2024/04/24 09:38:58;;;;;;;34.90;27.48;;;564.10;1843.20;;;;;;5447157;26;20091;-78
2024/04/24 09:41:24;;;;;;;57.17;45.95;;;563.80;1843.20;;;;;;5446588;26;19999;-75
2024/04/24 09:43:50;;;;;;;31.50;23.67;;;563.60;1843.20;;;;;;5446755;26;20010;-75
2024/04/24 09:46:18;;;;;;;48.42;38.08;;;538.30;1843.20;;;;;;5446829;26;20480;-76
2024/04/24 09:48:45;;;;;;;33.47;27.65;;;538.40;1868.80;;;;;;5446438;26;20011;-75
2024/04/24 09:51:13;;;;;;;43.58;33.35;;;538.50;1868.80;;;;;;5447235;26;20075;-75
2024/04/24 09:53:39;;;;;;;24.20;20.98;;;563.80;1843.20;;;;;;5446458;26;20018;-75
2024/04/24 09:56:27;;;;;;;23.48;20.63;;;563.40;1843.20;;;;;;5447489;26;20472;-75
2024/04/24 09:59:00;;;;;;;35.55;26.08;;;563.40;1868.80;;;;;;5445641;26;20030;-78
2024/04/24 10:01:27;;;;;;;32.70;25.98;;;563.40;1894.40;;;;;;5446995;26;20238;-77
2024/04/24 10:03:56;;;;;;;30.15;25.65;;;563.80;1868.80;;;;;;5446319;26;19999;-76
2024/04/24 10:06:23;;;;;;;26.65;20.92;;;563.80;1894.40;;;;;;5447300;26;20003;-76
2024/04/24 10:08:51;;;;;;;24.67;21.92;;;563.20;1868.80;;;;;;5445980;26;20035;-77
2024/04/24 10:11:20;;;;;;;23.83;19.55;;;538.50;1817.60;;;;;;5441998;26;20445;-76
2024/04/24 10:13:49;;;;;;;29.33;21.23;;;563.20;1843.20;;;;;;5428708;26;20078;-75
2024/04/24 10:16:16;;;;;;;23.52;18.48;;;563.60;1843.20;;;;;;5415367;26;20345;-76
2024/04/24 10:18:43;;;;;;;23.13;18.60;;;563.80;1792.00;;;;;;5446075;26;20011;-74
2024/04/24 10:21:11;;;;;;;21.15;17.67;;;538.30;1766.40;;;;;;5446998;26;20072;-75
2024/04/24 10:23:38;;;;;;;52.13;31.40;;;563.50;1817.60;;;;;;5445420;26;20010;-75
2024/04/24 10:26:05;;;;;;;23.73;20.92;;;538.40;1792.00;;;;;;5446958;26;20009;-78
2024/04/24 10:28:32;;;;;;;26.90;21.35;;;563.30;1843.20;;;;;;5445728;26;20003;-75
2024/04/24 10:31:01;;;;;;;35.45;26.38;;;512.90;1843.20;;;;;;5446543;26;19999;-75
2024/04/24 10:33:28;;;;;;;40.60;31.90;;;537.90;1868.80;;;;;;5445609;26;20031;-76
2024/04/24 10:35:55;;;;;;;36.40;26.27;;;538.30;1817.60;;;;;;5447055;26;20031;-77
2024/04/24 10:38:25;;;;;;;26.52;22.08;;;538.50;1843.20;;;;;;5445769;26;20009;-74
2024/04/24 10:40:51;;;;;;;22.50;19.65;;;563.20;1817.60;;;;;;5446454;26;20353;-76
2024/04/24 10:43:17;;;;;;;24.67;18.38;;;563.60;1792.00;;;;;;5445196;26;20003;-76
2024/04/24 10:45:44;;;;;;;43.88;33.03;;;563.60;1766.40;;;;;;5446686;26;20013;-76
2024/04/24 10:48:13;;;;;;;65.22;46.65;;;563.70;1766.40;;;;;;5445130;26;20007;-75
2024/04/24 10:50:40;;;;;;;24.25;19.65;;;564.00;1740.80;;;;;;5422239;26;19995;-76
2024/04/24 10:53:07;;;;;;;25.27;19.73;;;588.90;1689.60;;;;;;5444460;26;20025;-76
2024/04/24 10:55:33;;;;;;;25.17;20.38;;;589.10;1766.40;;;;;;5424125;26;20014;-75
2024/04/24 10:57:59;;;;;;;23.38;19.40;;;589.40;1715.20;;;;;;5444411;26;19995;-75
2024/04/24 11:00:31;;;;;;;24.30;17.40;;;589.40;1740.80;;;;;;5446052;26;20007;-75
2024/04/24 11:02:58;;;;;;;21.27;15.35;;;589.00;1740.80;;;;;;5445300;26;20007;-75
2024/04/24 11:05:24;;;;;;;23.65;17.17;;;563.70;1766.40;;;;;;5446279;26;20468;-75
2024/04/24 11:07:58;;;;;;;24.63;18.80;;;564.10;1766.40;;;;;;5444714;26;20505;-75
2024/04/24 11:10:25;;;;;;;24.80;18.95;;;563.40;1817.60;;;;;;5446119;26;20042;-75
2024/04/24 11:12:51;;;;;;;22.58;18.42;;;563.60;1817.60;;;;;;5444476;26;20035;-75
2024/04/24 11:15:21;;;;;;;27.90;20.40;;;563.70;1792.00;;;;;;5445607;26;20006;-74
2024/04/24 11:17:53;;;;;;;17.17;15.15;;;563.80;1792.00;;;;;;5445334;26;20003;-75
2024/04/24 11:20:20;;;;;;;20.80;16.90;;;564.10;1715.20;;;;;;5444138;26;19999;-75
2024/04/24 11:22:47;;;;;;;23.48;17.00;;;564.00;1740.80;;;;;;5445182;26;19999;-76
2024/04/24 11:25:14;;;;;;;19.45;15.13;;;563.90;1740.80;;;;;;5444648;26;20017;-75
2024/04/24 11:27:40;;;;;;;25.05;16.33;;;563.40;1740.80;;;;;;5444929;26;20350;-76
2024/04/24 11:30:12;;;;;;;17.85;14.63;;;;;;;;;;5444691;26;20010;-74
2024/04/24 11:32:40;;;;;;;25.48;19.63;;;563.50;1740.80;;;;;;5445190;26;19999;-76
2024/04/24 11:35:08;;;;;;;17.92;14.95;;;563.30;1766.40;;;;;;5444536;26;20010;-75
2024/04/24 11:37:37;;;;;;;22.13;17.15;;;538.50;1715.20;;;;;;5448262;26;20014;-75
2024/04/24 11:40:09;;;;;;;28.08;15.93;;;538.30;1792.00;;;;;;5448172;26;19999;-74
2024/04/24 11:42:40;;;;;;;63.92;37.85;;;538.30;1792.00;;;;;;5449322;26;20353;-77
2024/04/24 11:45:06;;;;;;;46.63;32.70;;;563.30;1817.60;;;;;;5448071;26;20072;-75
2024/04/24 11:47:32;;;;;;;24.35;16.52;;;563.40;1817.60;;;;;;5448687;26;20003;-74
2024/04/24 11:49:58;;;;;;;30.25;24.50;;;563.70;1792.00;;;;;;5447517;26;20072;-75
2024/04/24 11:52:24;;;;;;;37.17;27.42;;;563.80;1792.00;;;;;;5417067;26;20086;-75
2024/04/24 11:54:51;;;;;;;38.63;28.85;;;563.70;1740.80;;;;;;5447434;26;19998;-77
2024/04/24 11:57:17;;;;;;;26.80;20.50;;;563.70;1740.80;;;;;;5448046;26;20314;-75
2024/04/24 11:59:46;;;;;;;47.20;31.80;;;563.60;1766.40;;;;;;5447477;26;20014;-75